Time;durP1;ratioP1;P1;durP2;ratioP2;P2;SDS_P1;SDS_P2;PMS_P1;PMS_P2;Temp;Humidity;BMP_temperature;BMP_pressure;BME280_temperature;BME280_humidity;BME280_pressure;Samples;Min_cycle;Max_cycle;Signal;HPM_P1;HPM_P2
2021/12/01 00:00:41;;;;;;;3.42;3.13;;;;;;;7.93;100.00;96499.97;4906365;29;20028;-86
2021/12/01 00:03:06;;;;;;;3.80;2.97;;;;;;;7.95;100.00;96498.69;4922205;29;20091;-84
2021/12/01 00:05:33;;;;;;;3.20;2.88;;;;;;;7.91;100.00;96497.59;4903892;29;20055;-85
2021/12/01 00:08:00;;;;;;;4.95;3.67;;;;;;;7.91;100.00;96507.28;4920584;29;20040;-84
2021/12/01 00:10:28;;;;;;;5.50;4.85;;;;;;;7.85;100.00;96490.72;4919956;29;20043;-83
2021/12/01 00:12:53;;;;;;;5.75;5.25;;;;;;;7.62;100.00;96463.78;4921571;29;20490;-86
2021/12/01 00:15:20;;;;;;;10.18;5.25;;;;;;;7.73;100.00;96477.78;4927508;29;20036;-84
2021/12/01 00:17:49;;;;;;;8.18;5.90;;;;;;;7.70;100.00;96475.66;4914426;29;20067;-87
2021/12/01 00:20:17;;;;;;;8.63;6.43;;;;;;;7.66;100.00;96482.34;4930083;29;20040;-84
2021/12/01 00:22:44;;;;;;;5.82;5.28;;;;;;;7.58;100.00;96460.84;4928300;29;20087;-85
2021/12/01 00:25:12;;;;;;;7.18;5.25;;;;;;;7.70;100.00;96470.41;4930035;29;20062;-85
2021/12/01 00:27:38;;;;;;;4.60;4.07;;;;;;;7.63;100.00;96460.13;4928245;29;20027;-84
2021/12/01 00:30:09;;;;;;;8.23;3.70;;;;;;;7.77;100.00;96489.31;4927227;29;20394;-85
2021/12/01 00:32:36;;;;;;;6.95;4.60;;;;;;;7.69;100.00;96453.19;4907079;29;20429;-84
2021/12/01 00:35:08;;;;;;;11.35;4.88;;;;;;;7.67;100.00;96486.56;4912310;29;20035;-85
2021/12/01 00:37:35;;;;;;;8.48;3.92;;;;;;;7.67;100.00;96465.69;4926251;29;20111;-84
2021/12/01 00:40:01;;;;;;;8.90;3.08;;;;;;;7.61;100.00;96469.22;4908904;29;20046;-83
2021/12/01 00:42:28;;;;;;;5.22;3.10;;;;;;;7.65;100.00;96449.44;4904250;29;20036;-85
2021/12/01 00:44:57;;;;;;;5.70;2.42;;;;;;;7.61;100.00;96445.72;4909977;29;20451;-85
2021/12/01 00:47:30;;;;;;;4.22;1.70;;;;;;;7.59;100.00;96451.22;4909134;29;20040;-83
2021/12/01 00:49:56;;;;;;;;;;;;;;;7.55;100.00;96457.91;4928635;29;20031;-83
2021/12/01 00:52:22;;;;;;;5.10;1.38;;;;;;;7.53;100.00;96413.78;4927539;29;20392;-84
2021/12/01 00:54:48;;;;;;;7.15;1.52;;;;;;;7.28;100.00;96386.31;4925855;29;20099;-82
2021/12/01 00:57:14;;;;;;;7.05;1.55;;;;;;;7.26;100.00;96404.00;4912386;29;20035;-83
2021/12/01 00:59:39;;;;;;;7.10;1.33;;;;;;;7.37;100.00;96430.25;4909186;29;20363;-84
2021/12/01 01:02:05;;;;;;;4.10;1.40;;;;;;;7.32;100.00;96423.13;4929222;29;20031;-84
2021/12/01 01:04:31;;;;;;;7.07;1.27;;;;;;;7.20;100.00;96383.31;4908181;29;20390;-84
2021/12/01 01:06:56;;;;;;;3.65;1.10;;;;;;;7.11;100.00;96390.75;4927889;29;20036;-85
2021/12/01 01:09:23;;;;;;;8.68;1.33;;;;;;;7.13;100.00;96368.59;4921946;29;20398;-85
2021/12/01 01:17:24;;;;;;;4.40;1.13;;;;;;;6.87;100.00;96364.78;4928338;29;20036;-85
2021/12/01 01:19:49;;;;;;;1.98;0.60;;;;;;;6.90;100.00;96390.41;4914273;29;20497;-86
2021/12/01 01:22:15;;;;;;;6.38;0.95;;;;;;;6.85;100.00;96388.50;4925339;29;20028;-84
2021/12/01 01:24:40;;;;;;;1.67;0.60;;;;;;;6.81;100.00;96386.59;4910686;29;20032;-85
2021/12/01 01:27:06;;;;;;;3.85;0.90;;;;;;;6.77;100.00;96391.47;4924029;29;20024;-87
2021/12/01 01:29:36;;;;;;;4.15;1.10;;;;;;;6.65;100.00;96367.31;4924015;29;20036;-85
2021/12/01 01:32:02;;;;;;;8.50;2.05;;;;;;;6.60;100.00;96396.69;4908606;29;20047;-87
2021/12/01 01:34:28;;;;;;;4.38;1.50;;;;;;;6.52;100.00;96353.53;4921089;29;20047;-84
2021/12/01 01:36:54;;;;;;;3.95;0.80;;;;;;;6.49;100.00;96376.69;4911430;29;20668;-87
2021/12/01 01:39:20;;;;;;;7.22;1.17;;;;;;;6.43;100.00;96370.59;4924979;29;20027;-86
2021/12/01 01:41:46;;;;;;;6.50;1.10;;;;;;;6.27;100.00;96340.84;4912131;29;20039;-85
2021/12/01 01:44:12;;;;;;;2.67;0.82;;;;;;;6.10;100.00;96331.22;4905178;29;20047;-85
2021/12/01 01:46:40;;;;;;;6.75;1.25;;;;;;;6.17;100.00;96403.19;4908748;29;20073;-85
2021/12/01 01:49:18;;;;;;;6.40;1.00;;;;;;;6.17;100.00;96356.31;4909736;29;20070;-86
2021/12/01 01:51:45;;;;;;;11.30;1.60;;;;;;;6.09;100.00;96355.66;4906079;29;20133;-82
2021/12/01 01:54:12;;;;;;;9.93;1.42;;;;;;;5.88;100.00;96344.03;4927424;29;20048;-85
2021/12/01 01:56:38;;;;;;;10.27;1.80;;;;;;;5.87;100.00;96337.25;4922010;29;20399;-84
2021/12/01 01:59:04;;;;;;;10.35;1.70;;;;;;;5.97;100.00;96379.09;4927359;29;20071;-84
2021/12/01 02:03:59;;;;;;;8.40;1.60;;;;;;;6.04;100.00;96365.97;4927624;29;20035;-84
2021/12/01 02:06:25;;;;;;;5.03;1.58;;;;;;;6.05;100.00;96395.41;4925938;29;20091;-84
2021/12/01 02:08:53;;;;;;;8.38;2.03;;;;;;;6.10;100.00;96341.63;4922925;29;20047;-86
2021/12/01 02:11:20;;;;;;;7.80;1.48;;;;;;;5.99;100.00;96371.06;4925365;29;20494;-86
2021/12/01 02:13:46;;;;;;;3.30;1.00;;;;;;;5.97;100.00;96394.72;4921947;29;20482;-83
2021/12/01 02:16:13;;;;;;;11.73;2.00;;;;;;;5.96;100.00;96434.00;4924080;29;20016;-83
2021/12/01 02:18:41;;;;;;;8.57;1.65;;;;;;;5.88;100.00;96364.84;4925015;29;20438;-85
2021/12/01 02:21:26;;;;;;;6.40;1.50;;;;;;;5.84;100.00;96390.56;4924682;29;20040;-84
2021/12/01 02:23:53;;;;;;;8.55;1.75;;;;;;;5.86;100.00;96414.53;4926923;29;20070;-85
2021/12/01 02:26:22;;;;;;;9.30;1.40;;;;;;;5.79;100.00;96397.47;4928348;29;21731;-86
2021/12/01 02:28:53;;;;;;;4.40;0.90;;;;;;;5.55;100.00;96406.09;4924655;29;20084;-84
2021/12/01 02:31:19;;;;;;;3.45;1.45;;;;;;;5.50;100.00;96442.41;4906572;29;20038;-84
2021/12/01 02:33:45;;;;;;;8.55;1.52;;;;;;;5.39;100.00;96427.59;4907869;29;20063;-84
2021/12/01 02:36:15;;;;;;;2.58;1.00;;;;;;;5.32;100.00;96453.69;4922953;29;20035;-83
2021/12/01 02:38:43;;;;;;;4.90;0.90;;;;;;;5.24;100.00;96504.22;4909116;29;20027;-85
2021/12/01 02:41:10;;;;;;;2.20;0.73;;;;;;;5.22;100.00;96519.28;4907314;29;20039;-85
2021/12/01 02:43:36;;;;;;;1.77;0.50;;;;;;;5.28;100.00;96512.41;4911521;29;20102;-82
2021/12/01 02:46:03;;;;;;;1.92;0.45;;;;;;;5.31;100.00;96526.78;4921521;29;20038;-83
2021/12/01 02:48:29;;;;;;;4.63;1.00;;;;;;;5.04;100.00;96501.94;4922071;29;20039;-83
2021/12/01 02:50:56;;;;;;;2.65;0.70;;;;;;;5.15;100.00;96549.78;4907748;29;22027;-82
2021/12/01 02:53:23;;;;;;;2.05;0.40;;;;;;;5.08;100.00;96585.47;4925292;29;20055;-81
2021/12/01 02:56:00;;;;;;;2.40;0.40;;;;;;;4.85;100.00;96550.56;4927032;29;20463;-87
2021/12/01 02:58:31;;;;;;;0.90;0.28;;;;;;;4.73;100.00;96612.88;4913464;29;20028;-87
2021/12/01 03:00:59;;;;;;;0.20;0.20;;;;;;;4.79;100.00;96583.41;4913588;29;20469;-88
2021/12/01 03:03:25;;;;;;;1.45;0.20;;;;;;;4.64;100.00;96593.41;4905456;29;20032;-86
2021/12/01 03:05:51;;;;;;;0.15;0.15;;;;;;;4.60;100.00;96618.22;4922343;29;20044;-89
2021/12/01 03:08:19;;;;;;;0.10;0.10;;;;;;;4.49;100.00;96635.31;4938107;29;20046;-89
2021/12/01 03:10:48;;;;;;;1.67;0.20;;;;;;;4.33;100.00;96615.88;4936100;29;20102;-87
2021/12/01 03:13:15;;;;;;;0.22;0.22;;;;;;;4.39;100.00;96657.38;4916591;29;20122;-87
2021/12/01 03:15:41;;;;;;;0.70;0.20;;;;;;;4.31;100.00;96655.03;4913811;29;20046;-87
2021/12/01 03:18:07;;;;;;;0.15;0.15;;;;;;;3.96;100.00;96652.94;4913437;29;20028;-85
2021/12/01 03:20:33;;;;;;;0.10;0.10;;;;;;;3.80;100.00;96651.63;4936165;29;20036;-90
2021/12/01 03:22:59;;;;;;;0.15;0.15;;;;;;;3.80;100.00;96701.75;4906745;29;20032;-89
2021/12/01 03:25:27;;;;;;;0.25;0.25;;;;;;;3.63;100.00;96682.47;4901416;29;20083;-86
2021/12/01 03:27:53;;;;;;;0.15;0.15;;;;;;;3.77;100.00;96717.72;4901222;29;20039;-87
2021/12/01 03:30:22;;;;;;;0.20;0.20;;;;;;;3.68;100.00;96750.91;4917431;29;20040;-87
2021/12/01 03:32:49;;;;;;;0.28;0.20;;;;;;;3.67;100.00;96743.31;4901725;29;20047;-88
2021/12/01 03:35:15;;;;;;;0.20;0.20;;;;;;;3.63;100.00;96706.59;4901870;29;20446;-88
2021/12/01 03:37:45;;;;;;;0.20;0.20;;;;;;;3.69;100.00;96736.13;4901963;29;20028;-89
2021/12/01 03:40:13;;;;;;;0.43;0.22;;;;;;;3.78;100.00;96721.91;4902692;29;20044;-88
2021/12/01 03:42:40;;;;;;;0.20;0.20;;;;;;;3.69;100.00;96710.97;4904886;29;20509;-89
2021/12/01 03:45:07;;;;;;;0.43;0.30;;;;;;;3.62;100.00;96735.38;4907658;29;20509;-88
2021/12/01 03:47:33;;;;;;;0.25;0.25;;;;;;;3.66;100.00;96715.78;4910781;29;20036;-89
2021/12/01 03:49:59;;;;;;;0.10;0.10;;;;;;;3.86;100.00;96770.19;4908080;29;20108;-87
2021/12/01 03:52:25;;;;;;;0.20;0.20;;;;;;;3.72;100.00;96740.88;4907260;29;20051;-87
2021/12/01 03:54:52;;;;;;;0.52;0.20;;;;;;;3.70;100.00;96771.44;4906482;29;20040;-87
2021/12/01 03:57:18;;;;;;;0.10;0.10;;;;;;;3.79;100.00;96764.22;4906952;29;20040;-88
2021/12/01 03:59:44;;;;;;;0.20;0.20;;;;;;;3.68;100.00;96750.09;4906951;29;20497;-88
2021/12/01 04:02:10;;;;;;;0.20;0.20;;;;;;;3.75;100.00;96797.59;4907050;29;20171;-89
2021/12/01 04:04:36;;;;;;;0.10;0.10;;;;;;;3.86;100.00;96789.13;4907602;29;20138;-88
2021/12/01 04:07:02;;;;;;;0.32;0.20;;;;;;;3.92;100.00;96784.13;4908168;29;20034;-88
2021/12/01 04:09:28;;;;;;;0.35;0.30;;;;;;;3.88;100.00;96783.75;4907515;29;20400;-88
2021/12/01 04:11:54;;;;;;;0.55;0.28;;;;;;;3.87;100.00;96782.16;4906156;29;20040;-90
2021/12/01 04:14:20;;;;;;;0.20;0.20;;;;;;;3.91;100.00;96804.09;4919190;29;20046;-88
2021/12/01 04:16:46;;;;;;;0.82;0.30;;;;;;;3.97;100.00;96818.06;4923693;29;20460;-86
2021/12/01 04:19:12;;;;;;;0.40;0.38;;;;;;;3.98;100.00;96794.47;4925280;29;20514;-88
2021/12/01 04:21:39;;;;;;;0.30;0.30;;;;;;;3.89;100.00;96787.13;4927651;29;20024;-92
2021/12/01 04:24:05;;;;;;;0.30;0.30;;;;;;;3.94;100.00;96780.31;4927993;29;20054;-88
2021/12/01 04:26:33;;;;;;;1.08;0.40;;;;;;;3.75;100.00;96753.47;4929394;29;20028;-88
2021/12/01 04:29:00;;;;;;;0.40;0.40;;;;;;;4.15;100.00;96806.97;4928712;29;20046;-87
2021/12/01 04:31:29;;;;;;;1.35;0.50;;;;;;;4.03;100.00;96783.47;4929043;29;20042;-89
2021/12/01 04:33:56;;;;;;;0.52;0.40;;;;;;;4.10;100.00;96851.72;4928280;29;20509;-88
2021/12/01 04:36:27;;;;;;;0.63;0.40;;;;;;;4.11;100.00;96793.59;4927911;29;20114;-88
2021/12/01 04:38:52;;;;;;;0.40;0.40;;;;;;;3.96;100.00;96777.53;4943214;29;20389;-88
2021/12/01 04:41:19;;;;;;;1.08;0.40;;;;;;;4.03;100.00;96788.66;4925827;29;20118;-88
2021/12/01 04:43:47;;;;;;;3.70;0.40;;;;;;;4.18;100.00;96782.41;4925675;29;20074;-88
2021/12/01 04:46:16;;;;;;;1.23;0.43;;;;;;;4.29;100.00;96797.28;4925974;29;20040;-90
2021/12/01 04:48:42;;;;;;;0.82;0.50;;;;;;;4.42;100.00;96810.19;4940850;29;20035;-88
2021/12/01 04:51:08;;;;;;;0.57;0.40;;;;;;;4.32;100.00;96781.28;4924561;29;20055;-90
2021/12/01 04:53:34;;;;;;;0.60;0.60;;;;;;;4.40;100.00;96773.25;4926728;29;20083;-89
2021/12/01 04:55:59;;;;;;;2.35;0.60;;;;;;;4.87;100.00;96777.28;4911282;29;20470;-87
2021/12/01 04:58:25;;;;;;;1.10;0.65;;;;;;;4.77;100.00;96785.56;4913211;29;20394;-91
2021/12/01 05:00:51;;;;;;;2.47;0.93;;;;;;;4.58;100.00;96813.31;4929373;29;20032;-88
2021/12/01 05:03:16;;;;;;;0.68;0.57;;;;;;;4.61;100.00;96779.09;4907981;29;20103;-90
2021/12/01 05:05:42;;;;;;;1.52;0.77;;;;;;;4.63;100.00;96781.50;4910241;29;20066;-89
2021/12/01 05:08:07;;;;;;;6.15;1.13;;;;;;;4.64;100.00;96783.88;4907267;29;20505;-88
2021/12/01 05:10:33;;;;;;;2.35;0.85;;;;;;;4.69;100.00;96804.03;4907752;29;20043;-89
2021/12/01 05:12:59;;;;;;;2.30;1.05;;;;;;;4.73;100.00;96776.59;4919265;29;20079;-91
2021/12/01 05:15:24;;;;;;;4.05;1.05;;;;;;;4.82;100.00;96797.94;4927303;29;20032;-87
2021/12/01 05:17:50;;;;;;;1.40;1.05;;;;;;;4.81;100.00;96778.16;4915702;29;20023;-88
2021/12/01 05:20:16;;;;;;;2.83;1.10;;;;;;;5.00;100.00;96821.38;4920865;29;20458;-90
2021/12/01 05:22:44;;;;;;;4.53;1.30;;;;;;;4.87;100.00;96805.88;4930474;29;20095;-87
2021/12/01 05:25:11;;;;;;;4.15;1.35;;;;;;;4.93;100.00;96812.84;4912681;29;20566;-88
2021/12/01 05:27:36;;;;;;;8.20;1.08;;;;;;;4.97;100.00;96814.00;4912532;29;20120;-86
2021/12/01 05:30:04;;;;;;;5.82;1.40;;;;;;;4.94;100.00;96798.84;4915492;29;20043;-87
2021/12/01 05:32:31;;;;;;;7.30;1.40;;;;;;;5.04;100.00;96787.13;4921998;29;20130;-88
2021/12/01 05:34:57;;;;;;;4.85;1.30;;;;;;;5.04;100.00;96793.16;4912473;29;20043;-89
2021/12/01 05:37:23;;;;;;;8.15;1.42;;;;;;;4.97;100.00;96774.19;4902631;29;20403;-90
2021/12/01 05:39:49;;;;;;;8.27;1.30;;;;;;;5.16;100.00;96806.22;4906367;29;20495;-89
2021/12/01 05:42:16;;;;;;;4.97;1.50;;;;;;;5.16;100.00;96795.84;4923637;29;20046;-89
2021/12/01 05:44:43;;;;;;;7.20;1.27;;;;;;;5.15;100.00;96789.81;4927795;29;20032;-88
2021/12/01 05:47:09;;;;;;;3.75;1.30;;;;;;;5.24;100.00;96798.13;4913537;29;20036;-86
2021/12/01 05:49:41;;;;;;;6.72;1.30;;;;;;;5.31;100.00;96808.47;4916451;29;21400;-89
2021/12/01 05:52:08;;;;;;;5.63;1.17;;;;;;;5.33;100.00;96800.47;4907970;29;20034;-87
2021/12/01 05:54:35;;;;;;;6.97;1.40;;;;;;;5.45;100.00;96809.13;4934627;29;20043;-89
2021/12/01 05:57:01;;;;;;;9.75;1.15;;;;;;;5.36;100.00;96810.44;4929571;29;20041;-89
2021/12/01 05:59:27;;;;;;;5.93;1.30;;;;;;;5.51;100.00;96807.47;4910758;29;20457;-90
2021/12/01 06:01:52;;;;;;;8.05;1.30;;;;;;;5.43;100.00;96811.16;4911702;29;20027;-89
2021/12/01 06:04:18;;;;;;;5.88;1.50;;;;;;;5.45;100.00;96808.34;4910433;29;20055;-87
2021/12/01 06:06:44;;;;;;;7.85;1.42;;;;;;;5.32;100.00;96804.88;4910363;29;20099;-89
2021/12/01 06:09:10;;;;;;;7.65;1.50;;;;;;;5.65;100.00;96839.34;4911870;29;20048;-88
2021/12/01 06:11:36;;;;;;;15.07;1.98;;;;;;;5.57;100.00;96807.41;4925687;29;20478;-87
2021/12/01 06:14:02;;;;;;;15.18;1.92;;;;;;;5.74;100.00;96826.84;4927790;29;20042;-86
2021/12/01 06:16:28;;;;;;;13.38;1.98;;;;;;;5.60;100.00;96802.78;4923241;29;20035;-88
2021/12/01 06:18:55;;;;;;;16.17;2.33;;;;;;;5.64;100.00;96803.94;4907036;29;20043;-89
2021/12/01 06:21:20;;;;;;;10.52;1.80;;;;;;;5.64;100.00;96822.16;4926850;29;20028;-89
2021/12/01 06:23:46;;;;;;;11.15;1.90;;;;;;;5.64;100.00;96790.91;4910550;29;20039;-88
2021/12/01 06:26:12;;;;;;;11.77;3.47;;;;;;;5.74;100.00;96821.63;4903981;29;20040;-88
2021/12/01 06:28:38;;;;;;;17.05;2.78;;;;;;;5.76;100.00;96809.19;4932786;29;20065;-87
2021/12/01 06:31:05;;;;;;;13.77;2.88;;;;;;;5.68;100.00;96818.91;4907444;29;20051;-88
2021/12/01 06:33:30;;;;;;;16.10;3.10;;;;;;;5.70;100.00;96821.31;4924453;29;20024;-89
2021/12/01 06:35:56;;;;;;;18.77;3.13;;;;;;;5.59;100.00;96809.78;4927594;29;20027;-88
2021/12/01 06:38:22;;;;;;;19.92;2.63;;;;;;;5.59;100.00;96851.41;4915383;29;20032;-89
2021/12/01 06:40:48;;;;;;;19.50;3.08;;;;;;;5.62;100.00;96842.41;4910802;29;20059;-87
2021/12/01 06:43:18;;;;;;;17.77;2.88;;;;;;;5.65;100.00;96828.94;4916125;29;20024;-88
2021/12/01 06:45:45;;;;;;;23.70;3.55;;;;;;;5.58;100.00;96829.81;4912916;29;20052;-89
2021/12/01 06:48:11;;;;;;;19.10;2.88;;;;;;;5.52;100.00;96825.50;4912398;29;20487;-89
2021/12/01 06:50:36;;;;;;;13.40;2.47;;;;;;;5.70;100.00;96842.91;4909406;29;20031;-90
2021/12/01 06:53:04;;;;;;;24.27;3.85;;;;;;;5.84;100.00;96859.16;4925709;29;20398;-87
2021/12/01 06:55:33;;;;;;;9.13;3.00;;;;;;;5.80;100.00;96870.25;4926655;29;20090;-87
2021/12/01 06:57:59;;;;;;;13.38;2.33;;;;;;;5.85;100.00;96860.75;4906457;29;20036;-87
2021/12/01 07:00:25;;;;;;;10.90;2.50;;;;;;;5.75;100.00;96876.09;4911612;29;20044;-88
2021/12/01 07:02:52;;;;;;;10.15;2.20;;;;;;;5.78;100.00;96874.84;4910647;29;20024;-88
2021/12/01 07:05:18;;;;;;;10.70;2.25;;;;;;;5.71;100.00;96854.13;4926255;29;20099;-87
2021/12/01 07:07:44;;;;;;;19.42;2.55;;;;;;;5.68;100.00;96844.94;4906279;29;20111;-89
2021/12/01 07:10:12;;;;;;;18.42;2.42;;;;;;;5.63;100.00;96857.81;4926010;29;20139;-86
2021/12/01 07:12:38;;;;;;;12.93;2.65;;;;;;;5.58;100.00;96861.06;4907250;29;20045;-88
2021/12/01 07:15:05;;;;;;;22.55;2.67;;;;;;;5.55;100.00;96855.47;4911044;29;20031;-88
2021/12/01 07:17:31;;;;;;;20.45;2.95;;;;;;;5.63;100.00;96891.63;4913134;29;20032;-88
2021/12/01 07:19:57;;;;;;;11.40;2.60;;;;;;;5.40;100.00;96827.22;4927311;29;21987;-89
2021/12/01 07:22:22;;;;;;;14.60;3.05;;;;;;;5.51;100.00;96857.72;4906548;29;20095;-89
2021/12/01 07:24:48;;;;;;;9.23;1.65;;;;;;;5.52;100.00;96874.13;4926567;29;20402;-87
2021/12/01 07:27:15;;;;;;;13.30;2.20;;;;;;;5.62;100.00;96873.63;4910215;29;20036;-90
2021/12/01 07:29:42;;;;;;;8.85;1.92;;;;;;;5.46;100.00;96861.97;4906938;29;20036;-88
2021/12/01 07:32:09;;;;;;;13.75;2.72;;;;;;;5.57;100.00;96916.72;4923227;29;20088;-88
2021/12/01 07:34:41;;;;;;;15.02;2.05;;;;;;;5.69;100.00;96876.94;4910079;29;20036;-88
2021/12/01 07:37:13;;;;;;;13.65;2.08;;;;;;;5.46;100.00;96890.59;4910539;29;20056;-87
2021/12/01 07:39:39;;;;;;;11.23;1.90;;;;;;;5.54;100.00;96885.91;4910143;29;20036;-87
2021/12/01 07:42:05;;;;;;;12.70;2.28;;;;;;;5.46;100.00;96867.97;4911659;29;20123;-88
2021/12/01 07:44:31;;;;;;;8.00;2.05;;;;;;;5.54;100.00;96885.91;4924012;29;20131;-85
2021/12/01 07:46:57;;;;;;;17.30;2.35;;;;;;;5.52;100.00;96898.34;4922038;29;20461;-86
2021/12/01 07:49:23;;;;;;;17.10;2.50;;;;;;;5.36;100.00;96872.88;4923760;29;20028;-86
2021/12/01 07:51:49;;;;;;;8.05;1.67;;;;;;;5.42;100.00;96877.22;4907368;29;20555;-87
2021/12/01 07:54:15;;;;;;;12.52;2.72;;;;;;;5.38;100.00;96891.66;4906944;29;20060;-86
2021/12/01 07:56:40;;;;;;;9.75;2.28;;;;;;;5.30;100.00;96884.94;4926011;29;20399;-88
2021/12/01 07:59:06;;;;;;;12.60;2.42;;;;;;;5.29;100.00;96872.94;4909232;29;20387;-85
2021/12/01 08:01:32;;;;;;;10.98;2.42;;;;;;;5.31;100.00;96901.34;4925508;29;20027;-89
2021/12/01 08:03:57;;;;;;;11.85;1.92;;;;;;;5.27;100.00;96896.53;4920679;29;20619;-87
2021/12/01 08:06:23;;;;;;;18.88;2.40;;;;;;;5.22;100.00;96904.19;4906455;29;20028;-85
2021/12/01 08:08:49;;;;;;;12.75;2.45;;;;;;;5.27;100.00;96890.56;4920698;29;20398;-88
2021/12/01 08:11:15;;;;;;;20.00;2.75;;;;;;;5.18;100.00;96877.03;4925411;29;20486;-90
2021/12/01 08:13:41;;;;;;;14.63;3.22;;;;;;;5.31;100.00;96899.53;4928079;29;20074;-88
2021/12/01 08:16:06;;;;;;;18.48;3.58;;;;;;;5.28;100.00;96905.94;4924593;29;20027;-89
2021/12/01 08:18:32;;;;;;;10.90;2.40;;;;;;;5.28;100.00;96912.97;4924020;29;20478;-90
2021/12/01 08:21:01;;;;;;;11.07;2.53;;;;;;;5.35;100.00;96925.91;4925666;29;20035;-86
2021/12/01 08:23:27;;;;;;;16.02;3.00;;;;;;;5.32;100.00;96915.94;4910262;29;20038;-88
2021/12/01 08:25:53;;;;;;;10.98;2.05;;;;;;;5.24;100.00;96922.22;4929179;29;20027;-89
2021/12/01 08:28:18;;;;;;;15.55;3.38;;;;;;;5.39;100.00;96932.28;4902654;29;20046;-88
2021/12/01 08:30:44;;;;;;;13.00;2.97;;;;;;;5.30;100.00;96923.94;4912462;29;20067;-88
2021/12/01 08:33:09;;;;;;;12.77;2.38;;;;;;;5.19;100.00;96909.84;4920405;29;20040;-86
2021/12/01 08:35:35;;;;;;;18.90;2.42;;;;;;;5.14;100.00;96927.88;4924643;29;20032;-86
2021/12/01 08:38:00;;;;;;;13.73;2.30;;;;;;;4.96;100.00;96895.59;4910362;29;20028;-86
2021/12/01 08:40:26;;;;;;;12.80;2.22;;;;;;;5.28;100.00;96918.16;4910622;29;20032;-89
2021/12/01 08:42:52;;;;;;;13.82;2.47;;;;;;;5.20;100.00;96927.03;4906456;29;20032;-88
2021/12/01 08:45:18;;;;;;;15.15;2.30;;;;;;;5.22;100.00;96924.22;4914269;29;20043;-89
2021/12/01 08:47:44;;;;;;;16.77;2.58;;;;;;;5.27;100.00;96927.75;4921775;29;20525;-88
2021/12/01 08:50:11;;;;;;;15.98;2.88;;;;;;;5.20;100.00;96932.22;4912154;29;20038;-89
2021/12/01 08:52:38;;;;;;;14.40;3.95;;;;;;;5.29;100.00;96920.53;4927630;29;20028;-87
2021/12/01 08:55:04;;;;;;;14.65;3.22;;;;;;;5.23;100.00;96900.59;4904727;29;20032;-87
2021/12/01 08:57:30;;;;;;;14.93;4.45;;;;;;;5.28;100.00;96944.97;4911432;29;20028;-86
2021/12/01 08:59:56;;;;;;;7.82;2.97;;;;;;;5.31;100.00;96959.38;4906967;29;20044;-87
2021/12/01 09:02:21;;;;;;;19.40;2.38;;;;;;;5.41;100.00;96923.28;4921352;29;20028;-88
2021/12/01 09:04:50;;;;;;;15.38;2.90;;;;;;;5.41;100.00;96905.06;4927570;29;20041;-86
2021/12/01 09:07:17;;;;;;;15.88;3.10;;;;;;;5.47;100.00;96936.44;4927008;29;20031;-89
2021/12/01 09:09:43;;;;;;;10.50;3.95;;;;;;;5.50;100.00;96923.78;4930586;29;20114;-87
2021/12/01 09:12:08;;;;;;;17.52;2.80;;;;;;;5.46;100.00;96966.84;4926884;29;20224;-85
2021/12/01 09:14:34;;;;;;;14.20;3.88;;;;;;;5.58;100.00;96949.53;4923122;29;20459;-86
2021/12/01 09:17:00;;;;;;;17.80;3.60;;;;;;;5.53;100.00;96938.97;4926836;29;20483;-86
2021/12/01 09:19:26;;;;;;;18.13;2.45;;;;;;;5.54;100.00;96958.78;4927913;29;20046;-84
2021/12/01 09:21:51;;;;;;;18.45;2.92;;;;;;;5.39;100.00;96929.69;4923534;29;20115;-84
2021/12/01 09:24:18;;;;;;;14.35;3.92;;;;;;;5.66;100.00;96947.66;4929630;29;20036;-85
2021/12/01 09:26:44;;;;;;;15.90;3.90;;;;;;;5.71;100.00;96937.41;4906620;29;20028;-86
2021/12/01 09:29:09;;;;;;;9.95;2.85;;;;;;;5.79;100.00;96965.78;4929099;29;20039;-87
2021/12/01 09:31:35;;;;;;;12.52;2.70;;;;;;;5.63;100.00;96972.31;4924812;29;20024;-88
2021/12/01 09:34:02;;;;;;;10.05;2.20;;;;;;;5.47;100.00;96970.25;4926584;29;20032;-88
2021/12/01 09:36:29;;;;;;;10.02;2.78;;;;;;;5.03;100.00;96947.56;4926399;29;20119;-88
2021/12/01 09:38:56;;;;;;;12.48;2.53;;;;;;;4.90;100.00;96961.41;4924377;29;20103;-89
2021/12/01 09:41:23;;;;;;;14.02;2.75;;;;;;;4.94;100.00;96972.22;4927117;29;20042;-87
2021/12/01 09:43:49;;;;;;;8.02;2.08;;;;;;;4.85;100.00;96966.47;4923698;29;20399;-88
2021/12/01 09:46:15;;;;;;;12.63;3.15;;;;;;;4.88;100.00;96965.25;4912490;29;20080;-87
2021/12/01 09:48:42;;;;;;;15.38;3.58;;;;;;;5.03;100.00;96972.75;4928173;29;20054;-89
2021/12/01 09:51:10;;;;;;;13.82;3.20;;;;;;;4.93;100.00;96937.63;4929009;29;20438;-89
2021/12/01 09:53:36;;;;;;;12.93;2.42;;;;;;;5.20;100.00;96963.44;4909416;29;20438;-87
2021/12/01 09:56:03;;;;;;;13.95;2.65;;;;;;;5.18;100.00;96975.06;4907909;29;20391;-88
2021/12/01 09:58:33;;;;;;;9.93;2.50;;;;;;;5.14;100.00;96961.69;4929820;29;20040;-88
2021/12/01 10:01:12;;;;;;;8.77;2.53;;;;;;;5.35;100.00;96998.75;4929728;29;20024;-88
2021/12/01 10:03:39;;;;;;;9.02;2.25;;;;;;;5.32;100.00;96975.78;4923175;29;20088;-88
2021/12/01 10:06:11;;;;;;;13.88;2.47;;;;;;;5.54;100.00;97030.84;4924870;29;20027;-89
2021/12/01 10:08:47;;;;;;;9.30;2.03;;;;;;;5.54;100.00;97026.44;4931749;29;20493;-89
2021/12/01 10:11:35;;;;;;;10.38;2.20;;;;;;;5.47;100.00;97050.91;4929069;29;20042;-90
2021/12/01 10:14:16;;;;;;;8.00;1.55;;;;;;;5.24;100.00;97019.22;4926631;29;20036;-87
2021/12/01 10:16:43;;;;;;;7.88;1.65;;;;;;;5.07;100.00;97020.72;4932738;29;20051;-90
2021/12/01 10:19:16;;;;;;;10.45;2.38;;;;;;;4.88;100.00;97028.44;4918181;29;20047;-87
2021/12/01 10:21:52;;;;;;;10.50;1.58;;;;;;;4.68;100.00;97003.31;4926937;29;20087;-89
2021/12/01 10:24:23;;;;;;;15.07;2.30;;;;;;;5.01;100.00;97043.16;4911138;29;20064;-88
2021/12/01 10:26:51;;;;;;;9.00;2.33;;;;;;;4.89;100.00;97027.41;4909758;29;20036;-89
2021/12/01 10:29:23;;;;;;;11.80;2.00;;;;;;;5.19;100.00;97046.88;4908502;29;20056;-87
2021/12/01 10:32:07;;;;;;;13.95;2.70;;;;;;;5.03;100.00;97032.56;4908044;29;20056;-87
2021/12/01 10:34:43;;;;;;;10.45;2.28;;;;;;;4.99;100.00;97004.38;4908028;29;20470;-90
2021/12/01 10:37:12;;;;;;;17.55;3.70;;;;;;;5.46;100.00;97041.53;4907215;29;20475;-90
2021/12/01 10:39:41;;;;;;;15.32;2.30;;;;;;;5.35;100.00;97019.56;4907599;29;20079;-87
2021/12/01 10:42:15;;;;;;;10.48;2.13;;;;;;;5.36;100.00;97023.78;4908140;29;20028;-90
2021/12/01 10:44:59;;;;;;;13.77;2.33;;;;;;;5.28;100.00;97002.19;4907892;29;20044;-89
2021/12/01 10:47:35;;;;;;;10.27;2.95;;;;;;;5.60;100.00;97039.63;4907379;29;20036;-91
2021/12/01 10:50:03;;;;;;;13.68;2.50;;;;;;;5.48;100.00;97023.88;4907483;29;20051;-92
2021/12/01 10:52:35;;;;;;;15.38;3.33;;;;;;;5.45;100.00;97027.69;4907676;29;20046;-89
2021/12/01 10:55:14;;;;;;;25.65;8.90;;;;;;;5.75;100.00;97053.13;4907806;29;20143;-93
2021/12/01 10:57:47;;;;;;;22.42;7.97;;;;;;;5.46;100.00;97016.28;4907660;29;20036;-91
2021/12/01 11:00:16;;;;;;;20.33;9.00;;;;;;;5.81;100.00;97073.09;4908553;29;20096;-92
2021/12/01 11:02:42;;;;;;;14.50;4.90;;;;;;;5.82;100.00;97040.84;4908037;29;20036;-87
2021/12/01 11:05:09;;;;;;;13.27;3.45;;;;;;;5.57;100.00;97007.81;4906652;29;20039;-89
2021/12/01 11:07:34;;;;;;;13.52;2.72;;;;;;;5.74;100.00;97020.28;4906310;29;20031;-88
2021/12/01 11:10:15;;;;;;;15.57;2.72;;;;;;;5.83;100.00;97039.81;4906699;29;20043;-91
2021/12/01 11:12:42;;;;;;;12.27;4.03;;;;;;;6.12;100.00;97062.84;4906131;29;20040;-89
2021/12/01 11:15:20;;;;;;;10.43;3.00;;;;;;;6.19;100.00;97054.97;4906004;29;20497;-90
2021/12/01 11:17:47;;;;;;;11.15;2.60;;;;;;;6.05;100.00;97047.28;4906089;29;20036;-89
2021/12/01 11:20:39;;;;;;;9.35;2.05;;;;;;;5.81;100.00;96994.97;4905062;29;20050;-87
2021/12/01 11:23:17;;;;;;;11.02;3.42;;;;;;;5.94;100.00;97021.94;4904780;29;20036;-89
2021/12/01 11:25:48;;;;;;;13.88;3.75;;;;;;;5.77;100.00;97001.63;4920545;29;20482;-87
2021/12/01 11:28:16;;;;;;;16.70;4.40;;;;;;;5.99;100.00;97032.50;4905539;29;20096;-88
2021/12/01 11:30:45;;;;;;;14.40;2.78;;;;;;;6.17;100.00;97054.41;4904717;29;20040;-89
2021/12/01 11:33:14;;;;;;;13.85;3.08;;;;;;;6.12;100.00;97050.63;4920148;29;20040;-89
2021/12/01 11:35:41;;;;;;;17.83;2.25;;;;;;;6.02;100.00;97045.09;4904597;29;20080;-89
2021/12/01 11:38:09;;;;;;;13.18;3.67;;;;;;;5.90;100.00;97025.97;4904284;29;20036;-90